Time;durP1;ratioP1;P1;durP2;ratioP2;P2;SDS_P1;SDS_P2;PMS_P1;PMS_P2;Temp;Humidity;BMP_temperature;BMP_pressure;BME280_temperature;BME280_humidity;BME280_pressure;Samples;Min_cycle;Max_cycle;Signal;HPM_P1;HPM_P2
2022/01/18 00:02:06;;;;;;;8.20;6.23;;;3.50;99.90;;;;;;5034597;28;20216;-88
2022/01/18 00:04:34;;;;;;;9.97;7.30;;;3.50;99.90;;;;;;5052418;28;20239;-88
2022/01/18 00:07:00;;;;;;;7.93;6.27;;;3.50;99.90;;;;;;5038011;28;20196;-88
2022/01/18 00:09:26;;;;;;;9.13;7.20;;;3.40;99.90;;;;;;5038140;28;20205;-89
2022/01/18 00:12:00;;;;;;;8.77;6.63;;;3.50;99.90;;;;;;5038143;28;20237;-89
2022/01/18 00:14:40;;;;;;;9.00;6.43;;;3.50;99.90;;;;;;5038410;28;20178;-88
2022/01/18 00:17:29;;;;;;;10.93;6.73;;;3.50;99.90;;;;;;5037780;28;20165;-88
2022/01/18 00:19:56;;;;;;;8.20;6.70;;;3.50;99.90;;;;;;5037185;28;20174;-88
2022/01/18 00:22:25;;;;;;;10.27;7.47;;;3.50;99.90;;;;;;5037829;28;20237;-88
2022/01/18 00:24:52;;;;;;;10.20;7.30;;;3.50;99.90;;;;;;5037356;28;20200;-88
2022/01/18 00:27:18;;;;;;;9.43;6.83;;;3.50;99.90;;;;;;5037440;28;20634;-88
2022/01/18 00:30:25;;;;;;;9.43;7.40;;;3.50;99.90;;;;;;5037553;28;20251;-88
2022/01/18 00:32:50;;;;;;;11.07;7.80;;;3.50;99.90;;;;;;5052099;28;20213;-88
2022/01/18 00:35:16;;;;;;;9.13;6.80;;;3.50;99.90;;;;;;5034296;28;20525;-88
2022/01/18 00:37:51;;;;;;;8.77;6.63;;;3.40;99.90;;;;;;5033801;28;20186;-88
2022/01/18 00:40:17;;;;;;;10.00;7.10;;;3.40;99.90;;;;;;5034368;28;20166;-88
2022/01/18 00:42:44;;;;;;;7.83;6.40;;;3.40;99.90;;;;;;5033970;28;20262;-88
2022/01/18 00:45:10;;;;;;;9.33;7.27;;;3.40;99.90;;;;;;5034221;28;20178;-88
2022/01/18 00:47:36;;;;;;;11.57;7.30;;;3.30;99.90;;;;;;5033872;28;20175;-88
2022/01/18 00:50:03;;;;;;;9.30;7.13;;;3.30;99.90;;;;;;5033919;28;20214;-88
2022/01/18 00:52:34;;;;;;;9.07;7.20;;;3.30;99.90;;;;;;5033629;28;20217;-88
2022/01/18 00:55:01;;;;;;;10.10;7.10;;;3.30;99.90;;;;;;5033694;28;20170;-88
2022/01/18 00:57:28;;;;;;;9.43;6.70;;;3.30;99.90;;;;;;5033941;28;20182;-89
2022/01/18 00:59:54;;;;;;;10.00;7.23;;;3.30;99.90;;;;;;5033514;28;20186;-88
2022/01/18 01:02:20;;;;;;;10.13;6.97;;;3.30;99.90;;;;;;5033845;28;20336;-89
2022/01/18 01:04:50;;;;;;;9.40;7.27;;;3.30;99.90;;;;;;5053271;28;20186;-89
2022/01/18 01:07:21;;;;;;;9.67;7.70;;;3.30;99.90;;;;;;5070262;28;20177;-89
2022/01/18 01:09:47;;;;;;;10.00;7.50;;;3.30;99.90;;;;;;5053367;28;20212;-88
2022/01/18 01:12:15;;;;;;;9.17;7.10;;;3.30;99.90;;;;;;5053307;28;20190;-89
2022/01/18 01:14:42;;;;;;;9.70;7.30;;;3.30;99.90;;;;;;5070127;28;20181;-89
2022/01/18 01:31:57;;;;;;;10.20;7.50;;;3.30;99.90;;;;;;5069879;28;20178;-89
2022/01/18 01:46:42;;;;;;;10.47;7.23;;;3.40;99.90;;;;;;5069099;28;20186;-89
2022/01/18 01:49:28;;;;;;;9.93;7.13;;;3.40;99.90;;;;;;5068509;28;20244;-89
2022/01/18 01:51:54;;;;;;;8.83;7.20;;;3.40;99.90;;;;;;5052616;28;20198;-89
2022/01/18 01:54:20;;;;;;;10.63;8.10;;;3.40;99.90;;;;;;5069341;28;20181;-89
2022/01/18 01:56:46;;;;;;;10.07;7.03;;;3.40;99.90;;;;;;5068849;28;20235;-89
2022/01/18 01:59:12;;;;;;;9.13;7.43;;;3.30;99.90;;;;;;5069106;28;20178;-89
2022/01/18 02:01:47;;;;;;;11.70;8.53;;;3.30;99.90;;;;;;5069135;28;20561;-89
2022/01/18 02:04:13;;;;;;;10.73;7.97;;;3.40;99.90;;;;;;5052366;28;20186;-89
2022/01/18 02:06:40;;;;;;;10.67;8.37;;;3.30;99.90;;;;;;5069137;28;20181;-88
2022/01/18 02:09:13;;;;;;;11.40;8.33;;;3.30;99.90;;;;;;5068830;28;20198;-89
2022/01/18 02:11:39;;;;;;;11.73;8.20;;;3.20;99.90;;;;;;5069167;28;20202;-88
2022/01/18 02:14:07;;;;;;;12.43;8.37;;;3.30;99.90;;;;;;5069166;28;20241;-89
2022/01/18 02:22:18;;;;;;;11.73;8.37;;;3.30;99.90;;;;;;5069143;28;20229;-89
2022/01/18 02:24:44;;;;;;;10.30;8.00;;;3.30;99.90;;;;;;5068594;28;20194;-89
2022/01/18 02:27:10;;;;;;;12.10;7.80;;;3.30;99.90;;;;;;5068700;28;20315;-89
2022/01/18 02:30:10;;;;;;;13.33;9.13;;;3.30;99.90;;;;;;5068132;28;20335;-89
2022/01/18 02:32:36;;;;;;;12.33;8.87;;;3.20;99.90;;;;;;5068876;28;20193;-89
2022/01/18 02:35:03;;;;;;;12.70;9.07;;;3.20;99.90;;;;;;5034700;28;20592;-89
2022/01/18 02:37:29;;;;;;;10.87;8.40;;;3.20;99.90;;;;;;5034549;28;20175;-88
2022/01/18 02:39:55;;;;;;;11.50;8.17;;;3.20;99.90;;;;;;5035427;28;20630;-89
2022/01/18 02:42:26;;;;;;;12.57;9.20;;;3.20;99.90;;;;;;5034970;28;20233;-89
2022/01/18 02:44:53;;;;;;;13.03;9.40;;;3.20;99.90;;;;;;5035326;28;20205;-89
2022/01/18 02:47:20;;;;;;;14.70;9.30;;;3.20;99.90;;;;;;5035229;28;20186;-89
2022/01/18 02:49:47;;;;;;;12.00;8.87;;;3.20;99.90;;;;;;5035000;28;20307;-89
2022/01/18 02:52:14;;;;;;;12.77;9.13;;;3.20;99.90;;;;;;5035482;28;20223;-89
2022/01/18 02:54:40;;;;;;;14.97;9.83;;;3.20;99.90;;;;;;5035635;28;20205;-89
2022/01/18 02:57:11;;;;;;;14.40;9.67;;;3.20;99.90;;;;;;5051760;28;20178;-89
2022/01/18 02:59:51;;;;;;;14.53;9.97;;;3.20;99.90;;;;;;5035480;28;20178;-89
2022/01/18 03:05:04;;;;;;;12.43;8.97;;;3.10;99.90;;;;;;5051746;28;20273;-89
2022/01/18 03:07:29;;;;;;;12.33;9.63;;;3.10;99.90;;;;;;5034477;28;20185;-88
2022/01/18 03:09:55;;;;;;;11.77;9.27;;;3.10;99.90;;;;;;5035196;28;20202;-89
2022/01/18 03:12:21;;;;;;;12.63;9.77;;;3.10;99.90;;;;;;5051685;28;20198;-89
2022/01/18 03:14:47;;;;;;;14.47;9.70;;;3.10;99.90;;;;;;5034982;28;20181;-88
2022/01/18 03:17:13;;;;;;;12.63;8.83;;;3.10;99.90;;;;;;5035063;28;20200;-88
2022/01/18 03:24:09;;;;;;;14.70;9.70;;;3.10;99.90;;;;;;5052853;28;20157;-89
2022/01/18 03:28:03;;;;;;;14.20;9.83;;;3.20;99.90;;;;;;5034955;28;20240;-89
2022/01/18 03:29:21;;;;;;;13.50;9.17;;;3.10;99.90;;;;;;5051248;28;20214;-89
2022/01/18 03:31:47;;;;;;;14.03;10.17;;;3.10;99.90;;;;;;5035210;28;20304;-89
2022/01/18 03:34:13;;;;;;;13.10;9.27;;;3.10;99.90;;;;;;5035199;28;20200;-88
2022/01/18 03:36:39;;;;;;;14.53;10.43;;;3.10;99.90;;;;;;5035164;28;20178;-89
2022/01/18 03:39:05;;;;;;;12.47;9.77;;;3.10;99.90;;;;;;5034715;28;20178;-89
2022/01/18 03:41:31;;;;;;;15.37;10.13;;;3.10;99.90;;;;;;5034807;28;20198;-89
2022/01/18 03:43:57;;;;;;;13.93;9.97;;;3.00;99.90;;;;;;5034680;28;20265;-88
2022/01/18 03:46:24;;;;;;;14.33;10.07;;;3.10;99.90;;;;;;5034798;28;20174;-88
2022/01/18 03:48:51;;;;;;;12.63;9.67;;;3.10;99.90;;;;;;5051103;28;20206;-88
2022/01/18 03:51:17;;;;;;;12.83;9.70;;;3.10;99.90;;;;;;5034664;28;20198;-88
2022/01/18 03:53:44;;;;;;;12.10;9.60;;;3.10;99.90;;;;;;5051846;28;20197;-89
2022/01/18 03:56:10;;;;;;;12.90;9.50;;;3.10;99.90;;;;;;5038379;28;20227;-88
2022/01/18 03:58:36;;;;;;;12.23;9.30;;;3.10;99.90;;;;;;5037956;28;20182;-89
2022/01/18 04:01:04;;;;;;;13.70;10.17;;;3.10;99.90;;;;;;5038407;28;20206;-89
2022/01/18 04:03:30;;;;;;;13.63;10.07;;;3.10;99.90;;;;;;5038351;28;20674;-89
2022/01/18 04:05:59;;;;;;;13.60;10.57;;;3.10;99.90;;;;;;5037634;28;20178;-88
2022/01/18 04:08:25;;;;;;;15.33;10.50;;;3.10;99.90;;;;;;5054360;28;20331;-88
2022/01/18 04:10:51;;;;;;;14.17;10.20;;;3.10;99.90;;;;;;5054520;28;20177;-89
2022/01/18 04:13:17;;;;;;;13.03;10.17;;;3.10;99.90;;;;;;5038010;28;20174;-89
2022/01/18 04:15:43;;;;;;;15.30;10.47;;;3.10;99.90;;;;;;5038030;28;20220;-88
2022/01/18 04:29:09;;;;;;;12.43;9.00;;;3.00;99.90;;;;;;5053987;28;20202;-89
2022/01/18 04:31:35;;;;;;;14.03;10.27;;;3.00;99.90;;;;;;5037709;28;20194;-89
2022/01/18 04:34:02;;;;;;;15.27;10.77;;;3.00;99.90;;;;;;5054485;28;20182;-89
2022/01/18 04:36:28;;;;;;;17.67;12.23;;;3.00;99.90;;;;;;5037606;28;20178;-88
2022/01/18 04:38:55;;;;;;;15.43;11.13;;;3.00;99.90;;;;;;5053987;28;20181;-89
2022/01/18 04:41:27;;;;;;;15.23;11.63;;;3.00;99.90;;;;;;5053909;28;20280;-89
2022/01/18 04:49:38;;;;;;;15.03;9.93;;;3.10;99.90;;;;;;5053600;28;20216;-88
2022/01/18 04:52:29;;;;;;;14.30;9.97;;;3.10;99.90;;;;;;5037029;28;20197;-89
2022/01/18 04:55:00;;;;;;;13.47;9.50;;;3.00;99.90;;;;;;5037648;28;20174;-88
2022/01/18 05:00:13;;;;;;;16.27;10.30;;;3.00;99.90;;;;;;5053785;28;20178;-88
2022/01/18 05:02:39;;;;;;;12.90;9.40;;;3.00;99.90;;;;;;5036863;28;20214;-89
2022/01/18 05:05:06;;;;;;;13.47;10.17;;;3.00;99.90;;;;;;5036746;28;20186;-88
2022/01/18 05:07:32;;;;;;;14.53;10.33;;;3.00;99.90;;;;;;5053514;28;20201;-88
2022/01/18 05:10:23;;;;;;;13.70;10.10;;;3.00;99.90;;;;;;5053165;28;20300;-89
2022/01/18 05:12:52;;;;;;;15.90;10.37;;;3.00;99.90;;;;;;5053597;28;20201;-89
2022/01/18 05:23:09;;;;;;;15.60;10.80;;;3.10;99.90;;;;;;5053703;28;20178;-88
2022/01/18 05:25:36;;;;;;;18.70;12.07;;;3.10;99.90;;;;;;5036647;28;20194;-89
2022/01/18 05:28:04;;;;;;;16.93;11.37;;;3.10;99.90;;;;;;5036127;28;20178;-88
2022/01/18 05:30:31;;;;;;;16.37;11.13;;;3.10;99.90;;;;;;5019324;28;20183;-89
2022/01/18 05:32:59;;;;;;;15.53;10.70;;;3.10;99.90;;;;;;5032962;28;20206;-89
2022/01/18 05:35:26;;;;;;;14.50;10.30;;;3.10;99.90;;;;;;5033402;28;20182;-88
2022/01/18 05:37:54;;;;;;;14.23;10.67;;;3.10;99.90;;;;;;5033097;28;20178;-88
2022/01/18 05:40:21;;;;;;;14.67;10.40;;;3.10;99.90;;;;;;5033209;28;20275;-89
2022/01/18 05:42:47;;;;;;;15.43;10.50;;;3.10;99.90;;;;;;5035999;28;20312;-88
2022/01/18 05:45:13;;;;;;;14.47;10.03;;;3.10;99.90;;;;;;5034562;28;20178;-88
2022/01/18 05:47:40;;;;;;;15.10;10.23;;;3.10;99.90;;;;;;5032625;28;20265;-88
2022/01/18 05:50:10;;;;;;;14.07;10.50;;;3.10;99.90;;;;;;5046562;28;20205;-88
2022/01/18 05:52:37;;;;;;;16.50;11.33;;;3.10;99.90;;;;;;5036099;28;20276;-88
2022/01/18 05:55:07;;;;;;;15.53;11.60;;;3.10;99.90;;;;;;5036099;28;20174;-88
2022/01/18 05:58:01;;;;;;;15.83;10.30;;;3.10;99.90;;;;;;5052349;28;20162;-89
2022/01/18 06:09:11;;;;;;;16.13;10.80;;;3.10;99.90;;;;;;5052010;28;20205;-88
2022/01/18 06:11:43;;;;;;;16.50;11.57;;;3.10;99.90;;;;;;5035914;28;20288;-89
2022/01/18 06:14:09;;;;;;;16.60;11.50;;;3.10;99.90;;;;;;5036042;28;20170;-89
2022/01/18 06:16:35;;;;;;;17.90;12.50;;;3.10;99.90;;;;;;5034979;28;20193;-88
2022/01/18 06:19:01;;;;;;;18.10;13.10;;;3.10;99.90;;;;;;5035803;28;20182;-89
2022/01/18 06:21:28;;;;;;;17.70;12.30;;;3.10;99.90;;;;;;5035778;28;20251;-89
2022/01/18 06:23:53;;;;;;;16.67;11.17;;;3.10;99.90;;;;;;5035544;28;20182;-89
2022/01/18 06:26:19;;;;;;;16.07;12.13;;;3.10;99.90;;;;;;5035638;28;20200;-89
2022/01/18 06:28:46;;;;;;;18.00;12.00;;;3.10;99.90;;;;;;5035164;28;20247;-89
2022/01/18 06:31:13;;;;;;;21.77;14.10;;;3.10;99.90;;;;;;5034535;28;20216;-89
2022/01/18 06:33:39;;;;;;;20.83;14.17;;;3.10;99.90;;;;;;5034905;28;20197;-88
2022/01/18 06:36:06;;;;;;;18.60;13.33;;;3.10;99.90;;;;;;5023635;28;20252;-88
2022/01/18 06:38:32;;;;;;;19.20;12.43;;;3.10;99.90;;;;;;5031600;28;20184;-89
2022/01/18 06:40:59;;;;;;;16.87;11.80;;;3.00;99.90;;;;;;5031957;28;20199;-89
2022/01/18 06:43:27;;;;;;;17.03;11.87;;;3.00;99.90;;;;;;5039460;28;20185;-88
2022/01/18 06:46:02;;;;;;;18.47;12.50;;;3.10;99.90;;;;;;5031683;28;20193;-89
2022/01/18 06:48:28;;;;;;;18.00;12.53;;;3.00;99.90;;;;;;5032107;28;20200;-89
2022/01/18 06:50:54;;;;;;;18.60;12.50;;;3.00;99.90;;;;;;5030930;28;20265;-89
2022/01/18 06:53:20;;;;;;;17.67;12.87;;;3.00;99.90;;;;;;5032329;28;20193;-89
2022/01/18 06:55:51;;;;;;;18.27;12.30;;;3.00;99.90;;;;;;5032248;28;20214;-89
2022/01/18 06:58:17;;;;;;;18.80;13.50;;;3.00;99.90;;;;;;5031722;28;20190;-89
2022/01/18 07:00:43;;;;;;;18.70;13.20;;;3.10;99.90;;;;;;5031487;28;20225;-89
2022/01/18 07:03:09;;;;;;;19.40;13.63;;;3.10;99.90;;;;;;5031837;28;20205;-89
2022/01/18 07:05:36;;;;;;;20.43;13.87;;;3.10;99.90;;;;;;5036577;28;20184;-89
2022/01/18 07:08:02;;;;;;;21.00;13.50;;;3.10;99.90;;;;;;5026590;28;20241;-89
2022/01/18 07:10:31;;;;;;;21.20;14.90;;;3.10;99.90;;;;;;5034803;28;20287;-89
2022/01/18 07:13:00;;;;;;;20.67;14.23;;;3.10;99.90;;;;;;5034535;28;20202;-89
2022/01/18 07:15:26;;;;;;;19.13;14.10;;;3.10;99.90;;;;;;5034385;28;20182;-89
2022/01/18 07:18:26;;;;;;;19.13;13.53;;;3.10;99.90;;;;;;5029300;28;20406;-88
2022/01/18 07:20:53;;;;;;;19.87;13.20;;;3.10;99.90;;;;;;5030980;28;20197;-89
2022/01/18 07:23:24;;;;;;;20.67;13.47;;;3.10;99.90;;;;;;5027619;28;20221;-89
2022/01/18 07:25:52;;;;;;;19.70;13.00;;;3.10;99.90;;;;;;5045925;28;20217;-89
2022/01/18 07:28:19;;;;;;;18.67;13.13;;;3.10;99.90;;;;;;5035791;28;20204;-89
2022/01/18 07:30:46;;;;;;;18.67;13.50;;;3.10;99.90;;;;;;5038285;28;20181;-85
2022/01/18 07:33:14;;;;;;;20.50;14.30;;;3.10;99.90;;;;;;5055105;28;20182;-89
2022/01/18 07:35:41;;;;;;;20.20;13.53;;;3.10;99.90;;;;;;5038053;28;20212;-89
2022/01/18 07:38:12;;;;;;;17.93;12.47;;;3.10;99.90;;;;;;5037962;28;20230;-89
2022/01/18 07:40:41;;;;;;;19.10;13.03;;;3.10;99.90;;;;;;5038278;28;20182;-82
2022/01/18 07:43:07;;;;;;;15.60;11.47;;;3.10;99.90;;;;;;5038644;28;20201;-83
2022/01/18 07:45:33;;;;;;;18.07;12.27;;;3.10;99.90;;;;;;5056501;28;20196;-82
2022/01/18 07:47:59;;;;;;;17.10;11.93;;;3.10;99.90;;;;;;5038310;28;20206;-89
2022/01/18 07:50:25;;;;;;;18.13;12.33;;;3.10;99.90;;;;;;5037417;28;20236;-89
2022/01/18 07:52:52;;;;;;;20.23;13.10;;;3.10;99.90;;;;;;5037455;28;20674;-89
2022/01/18 07:55:17;;;;;;;19.63;13.00;;;3.10;99.90;;;;;;5037867;28;20178;-89
2022/01/18 07:57:44;;;;;;;17.80;12.30;;;3.10;99.90;;;;;;5037405;28;20181;-89
2022/01/18 08:00:13;;;;;;;18.50;12.83;;;3.10;99.90;;;;;;5037545;28;20184;-89
2022/01/18 08:02:44;;;;;;;18.53;12.63;;;3.10;99.90;;;;;;5038047;28;20255;-89
2022/01/18 08:05:11;;;;;;;18.83;12.93;;;3.20;99.90;;;;;;5037105;28;20202;-88
2022/01/18 08:07:37;;;;;;;19.37;13.50;;;3.20;99.90;;;;;;5037158;28;20261;-89
2022/01/18 08:10:05;;;;;;;19.90;13.70;;;3.20;99.90;;;;;;5037288;28;20209;-89
2022/01/18 08:12:31;;;;;;;19.33;13.40;;;3.20;99.90;;;;;;5037605;28;20396;-89
2022/01/18 08:15:02;;;;;;;19.43;14.60;;;3.30;99.90;;;;;;5037692;28;20250;-88
2022/01/18 08:17:30;;;;;;;18.73;14.07;;;3.30;99.90;;;;;;5053835;28;20268;-89
2022/01/18 08:20:06;;;;;;;21.30;15.47;;;3.30;99.90;;;;;;5019240;28;20277;-89
2022/01/18 08:22:35;;;;;;;21.33;14.67;;;3.30;99.90;;;;;;5017594;28;20320;-89
2022/01/18 08:25:01;;;;;;;20.33;13.33;;;3.30;99.90;;;;;;5017450;28;20190;-88
2022/01/18 08:27:27;;;;;;;20.37;14.13;;;3.30;99.90;;;;;;5017367;28;20185;-89
2022/01/18 08:29:53;;;;;;;19.13;14.13;;;3.30;99.90;;;;;;5017512;28;20280;-89
2022/01/18 08:32:19;;;;;;;18.50;13.37;;;3.30;99.90;;;;;;5035746;28;20225;-89
2022/01/18 08:34:45;;;;;;;18.07;12.93;;;3.30;99.90;;;;;;5037504;28;20181;-85
2022/01/18 08:37:11;;;;;;;18.50;13.23;;;3.30;99.90;;;;;;5037575;28;20185;-89
2022/01/18 08:39:37;;;;;;;22.50;14.23;;;3.40;99.90;;;;;;5036591;28;20182;-89
2022/01/18 08:42:25;;;;;;;21.87;15.57;;;3.40;99.90;;;;;;5037197;28;20206;-89
2022/01/18 08:45:01;;;;;;;23.10;15.20;;;3.40;99.90;;;;;;5029158;28;20268;-80
2022/01/18 08:47:27;;;;;;;21.00;14.77;;;3.40;99.90;;;;;;5048597;28;20226;-80
2022/01/18 08:49:53;;;;;;;19.30;13.87;;;3.50;99.90;;;;;;5020619;28;20202;-89
2022/01/18 08:52:20;;;;;;;20.33;14.43;;;3.50;99.90;;;;;;5058426;28;20240;-89
2022/01/18 08:54:46;;;;;;;21.93;15.30;;;3.50;99.90;;;;;;5039389;28;20182;-89
2022/01/18 08:57:53;;;;;;;20.17;14.07;;;3.60;99.90;;;;;;5049818;28;20309;-89
2022/01/18 09:00:19;;;;;;;20.53;14.00;;;3.60;99.90;;;;;;5034204;28;20170;-89
2022/01/18 09:02:45;;;;;;;21.03;13.63;;;3.60;99.90;;;;;;5053087;28;20205;-89
2022/01/18 09:05:11;;;;;;;28.67;18.30;;;3.70;99.90;;;;;;5036405;28;20268;-89
2022/01/18 09:07:39;;;;;;;34.90;22.83;;;3.70;99.90;;;;;;5052589;28;20439;-90
2022/01/18 09:10:07;;;;;;;40.50;25.70;;;3.70;99.90;;;;;;5035913;28;20293;-89
2022/01/18 09:12:34;;;;;;;30.30;21.30;;;3.70;99.90;;;;;;5033204;28;20198;-89
2022/01/18 09:15:04;;;;;;;27.43;17.83;;;3.80;99.90;;;;;;5039862;28;20185;-89
2022/01/18 09:17:31;;;;;;;28.83;18.30;;;3.80;99.90;;;;;;5035431;28;20236;-89
2022/01/18 09:19:58;;;;;;;25.50;16.23;;;3.80;99.90;;;;;;5032733;28;20186;-88
2022/01/18 09:22:24;;;;;;;22.73;15.30;;;3.80;99.90;;;;;;5032865;28;20207;-89
2022/01/18 09:24:50;;;;;;;24.63;16.60;;;3.90;99.90;;;;;;5016249;28;20233;-89
2022/01/18 09:27:17;;;;;;;26.67;19.03;;;3.90;99.90;;;;;;5016349;28;20190;-89
2022/01/18 09:29:45;;;;;;;24.13;16.00;;;4.00;99.90;;;;;;5025487;28;20198;-89
2022/01/18 09:32:11;;;;;;;24.17;17.07;;;4.00;99.90;;;;;;5024094;28;20210;-89
2022/01/18 09:34:37;;;;;;;28.97;18.10;;;4.10;99.90;;;;;;5054288;28;20186;-89
2022/01/18 09:37:03;;;;;;;22.70;15.23;;;4.10;99.90;;;;;;5027144;28;20551;-89
2022/01/18 09:39:29;;;;;;;23.63;15.07;;;4.10;99.90;;;;;;5025605;28;20184;-89
2022/01/18 09:45:44;;;;;;;24.17;15.60;;;4.20;99.90;;;;;;5043597;28;20179;-89
2022/01/18 09:48:12;;;;;;;23.63;14.47;;;4.30;99.90;;;;;;5019253;28;20179;-88
2022/01/18 09:50:40;;;;;;;23.37;15.33;;;4.30;99.90;;;;;;5033332;28;20172;-82
2022/01/18 09:53:08;;;;;;;24.67;16.07;;;4.40;99.90;;;;;;5016809;28;20183;-89
2022/01/18 09:55:41;;;;;;;23.90;15.20;;;4.40;99.90;;;;;;5035925;28;20184;-89
2022/01/18 09:58:07;;;;;;;23.90;16.10;;;4.40;99.90;;;;;;5035684;28;20650;-89
2022/01/18 10:00:37;;;;;;;26.00;16.07;;;4.40;99.90;;;;;;5059606;28;20178;-89
2022/01/18 10:03:09;;;;;;;23.33;15.53;;;4.50;99.90;;;;;;5016671;28;20276;-89
2022/01/18 10:05:39;;;;;;;24.57;15.40;;;4.50;99.90;;;;;;5048751;28;20181;-89
2022/01/18 10:08:08;;;;;;;29.00;17.97;;;4.50;99.90;;;;;;5034232;28;20174;-89
2022/01/18 10:10:35;;;;;;;26.90;16.00;;;4.60;99.90;;;;;;5045402;28;20624;-89
2022/01/18 10:13:01;;;;;;;26.87;17.60;;;4.60;99.90;;;;;;5035260;28;20199;-89
2022/01/18 10:15:27;;;;;;;31.07;16.80;;;4.60;99.90;;;;;;5033577;28;20189;-89
2022/01/18 10:18:03;;;;;;;27.33;16.13;;;4.50;99.90;;;;;;5018573;28;20238;-88
2022/01/18 10:20:29;;;;;;;29.00;16.47;;;4.60;99.90;;;;;;5045813;28;20632;-89
2022/01/18 10:22:55;;;;;;;29.60;16.27;;;4.70;99.90;;;;;;5034336;28;20199;-89
2022/01/18 10:25:27;;;;;;;28.57;16.27;;;4.70;99.90;;;;;;5028378;28;20199;-88
2022/01/18 10:27:55;;;;;;;30.93;16.33;;;4.80;99.90;;;;;;5027776;28;20279;-89
2022/01/18 10:30:44;;;;;;;27.43;15.93;;;4.80;99.90;;;;;;5045855;28;20238;-89
2022/01/18 10:33:17;;;;;;;23.77;14.70;;;4.90;99.90;;;;;;5027023;28;20180;-89
2022/01/18 10:36:13;;;;;;;25.80;14.73;;;4.90;99.90;;;;;;5057600;28;20167;-89
2022/01/18 10:38:44;;;;;;;26.37;13.43;;;4.90;99.90;;;;;;5033219;28;20180;-89
2022/01/18 10:41:34;;;;;;;22.17;13.10;;;4.90;99.90;;;;;;5039985;28;20212;-92
2022/01/18 10:44:03;;;;;;;22.90;13.67;;;4.90;99.90;;;;;;5031815;28;20169;-89
2022/01/18 10:46:35;;;;;;;36.97;20.80;;;4.90;99.90;;;;;;5031579;28;20212;-89
2022/01/18 10:49:02;;;;;;;25.00;15.10;;;4.90;99.90;;;;;;5035231;28;20238;-88
2022/01/18 10:51:32;;;;;;;27.87;14.53;;;5.00;99.90;;;;;;5027324;28;20218;-89
2022/01/18 10:54:01;;;;;;;21.60;13.47;;;5.10;99.90;;;;;;5036775;28;20164;-89
2022/01/18 10:56:38;;;;;;;24.90;14.37;;;5.10;99.90;;;;;;5025182;28;20179;-89
2022/01/18 10:59:05;;;;;;;20.50;13.23;;;5.10;99.90;;;;;;5044533;28;20173;-89
2022/01/18 11:01:32;;;;;;;22.23;13.80;;;5.10;99.90;;;;;;5026064;28;20234;-89
2022/01/18 11:04:12;;;;;;;24.00;13.93;;;5.20;99.90;;;;;;5047258;28;20237;-89
2022/01/18 11:06:39;;;;;;;21.03;13.00;;;5.20;99.90;;;;;;5032596;28;20184;-89
2022/01/18 11:09:12;;;;;;;20.87;12.63;;;5.30;99.90;;;;;;5038390;28;20199;-89
2022/01/18 11:12:05;;;;;;;22.23;13.33;;;5.30;99.90;;;;;;5038774;28;20200;-89
2022/01/18 11:14:37;;;;;;;20.77;11.93;;;5.40;99.90;;;;;;5038739;28;20180;-89
2022/01/18 11:17:06;;;;;;;22.20;13.13;;;5.50;99.90;;;;;;5038901;28;20181;-89
2022/01/18 11:19:35;;;;;;;21.83;12.07;;;5.50;99.90;;;;;;5039032;28;20184;-89
2022/01/18 11:22:07;;;;;;;22.27;12.43;;;5.60;99.90;;;;;;5036940;28;20209;-89
2022/01/18 11:24:36;;;;;;;18.43;11.83;;;5.70;99.90;;;;;;5041039;28;20223;-89
2022/01/18 11:27:06;;;;;;;18.07;11.70;;;5.80;99.90;;;;;;5038199;28;20184;-89
2022/01/18 11:29:34;;;;;;;16.77;10.67;;;5.70;99.90;;;;;;5038865;28;20216;-89
2022/01/18 11:32:01;;;;;;;18.13;11.40;;;5.80;99.90;;;;;;5038529;28;20192;-89
2022/01/18 11:34:42;;;;;;;17.17;10.50;;;5.80;99.90;;;;;;5039195;28;20219;-90
2022/01/18 11:37:25;;;;;;;17.53;10.73;;;5.80;99.90;;;;;;5038884;28;20182;-88
2022/01/18 11:40:03;;;;;;;19.43;11.17;;;5.90;99.90;;;;;;5038949;28;20180;-89
2022/01/18 11:42:40;;;;;;;16.50;10.30;;;6.00;99.90;;;;;;5038587;28;20206;-89
2022/01/18 11:45:24;;;;;;;18.33;10.67;;;6.10;99.90;;;;;;5038474;28;20187;-89
2022/01/18 11:48:02;;;;;;;16.37;9.80;;;6.10;99.90;;;;;;5054969;28;20185;-89
2022/01/18 11:50:37;;;;;;;16.10;9.77;;;6.30;99.90;;;;;;5038751;28;20216;-89
2022/01/18 11:53:38;;;;;;;14.77;9.93;;;6.40;99.90;;;;;;5038463;28;20173;-89
2022/01/18 11:59:53;;;;;;;19.13;9.77;;;6.70;99.90;;;;;;5055519;28;20284;-89
2022/01/18 12:02:43;;;;;;;19.07;10.17;;;6.90;99.90;;;;;;5038019;28;20233;-89
2022/01/18 12:05:14;;;;;;;15.33;8.53;;;7.00;99.90;;;;;;5037961;28;20204;-88
2022/01/18 12:07:42;;;;;;;12.67;7.90;;;7.20;99.90;;;;;;5028086;28;20167;-89
2022/01/18 12:10:33;;;;;;;14.37;7.57;;;7.30;99.90;;;;;;5033451;28;20276;-89
2022/01/18 12:13:02;;;;;;;9.97;6.87;;;7.50;99.90;;;;;;5021301;28;20198;-89
2022/01/18 12:15:36;;;;;;;15.37;8.30;;;7.40;99.90;;;;;;5036733;28;20177;-90
2022/01/18 12:18:04;;;;;;;11.53;7.90;;;7.40;99.90;;;;;;5037770;28;20305;-89
2022/01/18 12:20:46;;;;;;;16.03;7.37;;;7.40;99.90;;;;;;5038500;28;20178;-89
2022/01/18 12:23:23;;;;;;;11.17;7.37;;;7.30;99.90;;;;;;5037931;28;20196;-89
2022/01/18 12:25:58;;;;;;;12.23;6.67;;;7.30;99.90;;;;;;5037886;28;20220;-89
2022/01/18 12:31:53;;;;;;;8.63;5.20;;;7.20;99.90;;;;;;5035079;28;20235;-80
2022/01/18 12:34:35;;;;;;;8.57;5.13;;;7.00;99.90;;;;;;5038041;28;20190;-80
2022/01/18 12:37:40;;;;;;;11.23;6.23;;;6.90;99.90;;;;;;5037965;28;20193;-80
2022/01/18 12:40:05;;;;;;;12.33;6.20;;;6.80;99.90;;;;;;5052316;28;20188;-80
2022/01/18 12:45:25;;;;;;;7.97;5.03;;;6.70;99.90;;;;;;5055747;28;20205;-80
2022/01/18 12:47:54;;;;;;;10.33;6.20;;;6.70;99.90;;;;;;5037848;28;20174;-80
2022/01/18 12:50:34;;;;;;;8.53;5.07;;;6.60;99.90;;;;;;5037858;28;20204;-80
2022/01/18 12:53:08;;;;;;;9.30;5.80;;;6.60;99.90;;;;;;5038057;28;20193;-81
2022/01/18 12:55:38;;;;;;;9.67;5.20;;;6.50;99.90;;;;;;5046951;28;20177;-80
2022/01/18 12:58:14;;;;;;;8.57;4.43;;;6.50;99.90;;;;;;5037753;28;20186;-80
2022/01/18 13:00:49;;;;;;;7.63;4.27;;;6.50;99.90;;;;;;5017735;28;20190;-89
2022/01/18 13:03:17;;;;;;;7.83;3.97;;;6.40;99.90;;;;;;5031050;28;20213;-90
2022/01/18 13:05:51;;;;;;;7.17;4.33;;;6.30;99.90;;;;;;5029442;28;20570;-90
2022/01/18 13:08:21;;;;;;;10.73;4.47;;;6.30;99.90;;;;;;5023345;28;20288;-89
2022/01/18 13:10:50;;;;;;;8.57;4.50;;;6.30;99.90;;;;;;5025923;28;20192;-89
2022/01/18 13:13:19;;;;;;;7.90;4.63;;;6.20;99.90;;;;;;5033139;28;20288;-90
2022/01/18 13:16:03;;;;;;;6.03;3.47;;;6.20;99.90;;;;;;5041972;28;20185;-90
2022/01/18 13:26:41;;;;;;;6.80;4.00;;;6.10;99.90;;;;;;5055569;28;20212;-89
2022/01/18 13:29:26;;;;;;;7.23;4.47;;;6.10;99.90;;;;;;5056774;28;20243;-89
2022/01/18 13:32:15;;;;;;;9.73;4.30;;;6.20;99.90;;;;;;5056212;28;20248;-89
2022/01/18 13:34:43;;;;;;;8.40;4.13;;;6.20;99.90;;;;;;5024471;28;20243;-89
2022/01/18 13:37:15;;;;;;;7.60;4.77;;;6.20;99.90;;;;;;5049349;28;20671;-89
2022/01/18 13:39:47;;;;;;;7.30;3.53;;;6.20;99.90;;;;;;5038957;28;20178;-89
2022/01/18 13:42:17;;;;;;;8.23;3.93;;;6.30;99.90;;;;;;5040158;28;20274;-90
2022/01/18 13:45:05;;;;;;;8.30;4.23;;;6.30;99.90;;;;;;5057077;28;20173;-89
2022/01/18 13:47:39;;;;;;;8.63;4.47;;;6.40;99.90;;;;;;5055783;28;20211;-89
2022/01/18 13:50:06;;;;;;;6.47;4.20;;;6.40;99.90;;;;;;5047685;28;20938;-89
2022/01/18 13:52:32;;;;;;;7.30;4.27;;;6.40;99.90;;;;;;5049692;28;20205;-89
2022/01/18 13:54:58;;;;;;;8.57;4.50;;;6.50;99.90;;;;;;5051914;28;20629;-88
2022/01/18 13:57:24;;;;;;;8.80;4.27;;;6.50;99.90;;;;;;5052370;28;20181;-79
2022/01/18 13:59:51;;;;;;;8.20;4.60;;;6.50;99.90;;;;;;5052365;28;20202;-79
2022/01/18 14:02:20;;;;;;;9.00;5.30;;;6.50;99.90;;;;;;5052423;28;20212;-79
2022/01/18 14:05:04;;;;;;;8.00;5.27;;;6.50;99.90;;;;;;5052259;28;20182;-79
2022/01/18 14:07:30;;;;;;;9.37;5.50;;;6.50;99.90;;;;;;5052422;28;20192;-79
2022/01/18 14:10:00;;;;;;;9.03;4.70;;;6.50;99.90;;;;;;5052056;28;20248;-79
2022/01/18 14:12:33;;;;;;;5.47;3.90;;;6.50;99.90;;;;;;5052175;28;20203;-79
2022/01/18 14:15:00;;;;;;;4.83;2.80;;;6.50;99.90;;;;;;5051811;28;20170;-79
2022/01/18 14:17:26;;;;;;;7.30;3.17;;;6.40;99.90;;;;;;5068523;28;20225;-79
2022/01/18 14:20:13;;;;;;;6.30;3.37;;;6.30;99.90;;;;;;5069197;28;20534;-90
2022/01/18 14:22:39;;;;;;;8.27;3.50;;;6.30;99.90;;;;;;5052204;28;20253;-89
2022/01/18 14:25:07;;;;;;;5.70;3.60;;;6.30;99.90;;;;;;5069298;28;20197;-83
2022/01/18 14:27:37;;;;;;;4.87;3.40;;;6.30;99.90;;;;;;5068810;28;20193;-89
2022/01/18 14:30:09;;;;;;;7.53;3.37;;;6.30;99.90;;;;;;5067063;28;20220;-89
2022/01/18 14:32:41;;;;;;;8.83;3.63;;;6.20;99.90;;;;;;5066394;28;20208;-89
2022/01/18 14:35:11;;;;;;;5.20;2.90;;;6.20;99.90;;;;;;5032908;28;20188;-90
2022/01/18 14:37:39;;;;;;;4.07;2.60;;;6.20;99.90;;;;;;5032481;28;20446;-90